Main page
METAR-TAF:

METAR-TAF

Airports :

Kavala International Airport

Kavala, Greece

latitude: 40-59N, longitude: 024-36E, elevation: 5 m

Current weather observation

The report was made 31 minutes ago, at 04:20 UTC
Wind 9 kt from the West
Temperature 2°C
Humidity 44%
Pressure 1016 hPa
Visibility 10 km or more
Few clouds at a height of 3000 ft

METAR: LGKV 160420Z 26009KT 9999 FEW030 02/M09 Q1016

Time: 06:51 (04:51 UTC)

Forecast

The report was made 2 hours and 51 minutes ago, at 02:00 UTC
Forecast valid from 16 at 03 UTC to 16 at 12 UTC
Wind 7 kt from the North/Northwest
Visibility 10 km or more
Few clouds at a height of 2000 ft

TAF: LGKV 160200Z 1603/1612 33007KT 9999 FEW020

Weather observations and forecasts of more than 4000 airports (METAR and TAF reports).

The available stations are represented by yellow and red dots on the map.

Hover mouse over dot to see the name of the station.

Then click to see weather observations and forecasts.

To change the map : click on the green buttons with a black cross to zoom in, on the green button with a dash to zoom out, or on the green arrows for adjacent maps.


METAR-TAF: